sensor_id;sensor_type;location;lat;lon;timestamp;pressure;altitude;pressure_sealevel;temperature;humidity
62617;BME280;62539;51.190;6.808;2023-03-25T00:01:00;100125.84;;;19.41;54.01
62617;BME280;62539;51.190;6.808;2023-03-25T00:03:28;100116.31;;;19.38;53.93
62617;BME280;62539;51.190;6.808;2023-03-25T00:05:56;100119.03;;;19.37;54.15
62617;BME280;62539;51.190;6.808;2023-03-25T00:08:24;100121.72;;;19.35;54.18
62617;BME280;62539;51.190;6.808;2023-03-25T00:10:56;100110.38;;;19.35;54.28
62617;BME280;62539;51.190;6.808;2023-03-25T00:13:24;100106.09;;;19.32;54.46
62617;BME280;62539;51.190;6.808;2023-03-25T00:15:50;100099.13;;;19.31;54.40
62617;BME280;62539;51.190;6.808;2023-03-25T00:18:23;100110.56;;;19.30;54.29
62617;BME280;62539;51.190;6.808;2023-03-25T00:20:51;100106.22;;;19.29;54.20
62617;BME280;62539;51.190;6.808;2023-03-25T00:23:21;100097.56;;;19.27;54.09
62617;BME280;62539;51.190;6.808;2023-03-25T00:25:47;100098.50;;;19.26;54.16
62617;BME280;62539;51.190;6.808;2023-03-25T00:28:14;100092.41;;;19.26;54.27
62617;BME280;62539;51.190;6.808;2023-03-25T00:30:42;100097.72;;;19.24;54.31
62617;BME280;62539;51.190;6.808;2023-03-25T00:33:09;100102.13;;;19.23;54.38
62617;BME280;62539;51.190;6.808;2023-03-25T00:35:38;100094.31;;;19.22;54.32
62617;BME280;62539;51.190;6.808;2023-03-25T00:38:09;100097.03;;;19.20;54.35
62617;BME280;62539;51.190;6.808;2023-03-25T00:40:35;100093.53;;;19.20;54.30
62617;BME280;62539;51.190;6.808;2023-03-25T00:43:01;100097.09;;;19.19;54.20
62617;BME280;62539;51.190;6.808;2023-03-25T00:45:29;100092.75;;;19.18;54.23
62617;BME280;62539;51.190;6.808;2023-03-25T00:47:55;100096.31;;;19.17;54.33
62617;BME280;62539;51.190;6.808;2023-03-25T00:50:21;100088.41;;;19.17;54.26
62617;BME280;62539;51.190;6.808;2023-03-25T00:52:47;100086.72;;;19.16;54.41
62617;BME280;62539;51.190;6.808;2023-03-25T00:55:13;100089.34;;;19.16;54.21
62617;BME280;62539;51.190;6.808;2023-03-25T00:57:39;100092.91;;;19.15;54.26
62617;BME280;62539;51.190;6.808;2023-03-25T01:00:07;100096.44;;;19.14;54.32
62617;BME280;62539;51.190;6.808;2023-03-25T01:02:35;100094.75;;;19.13;54.40
62617;BME280;62539;51.190;6.808;2023-03-25T01:05:03;100094.75;;;19.13;54.58
62617;BME280;62539;51.190;6.808;2023-03-25T01:07:29;100100.00;;;19.13;54.44
62617;BME280;62539;51.190;6.808;2023-03-25T01:09:56;100089.59;;;19.11;54.41
62617;BME280;62539;51.190;6.808;2023-03-25T01:12:22;100093.97;;;19.10;54.44
62617;BME280;62539;51.190;6.808;2023-03-25T01:14:49;100090.50;;;19.10;54.47
62617;BME280;62539;51.190;6.808;2023-03-25T01:17:15;100087.94;;;19.08;54.48
62617;BME280;62539;51.190;6.808;2023-03-25T01:19:40;100087.94;;;19.08;54.56
62617;BME280;62539;51.190;6.808;2023-03-25T01:22:06;100096.75;;;19.07;54.42
62617;BME280;62539;51.190;6.808;2023-03-25T01:24:31;100089.78;;;19.06;54.62
62617;BME280;62539;51.190;6.808;2023-03-25T01:26:57;100079.28;;;19.06;54.60
62617;BME280;62539;51.190;6.808;2023-03-25T01:29:23;100084.63;;;19.05;54.53
62617;BME280;62539;51.190;6.808;2023-03-25T01:31:48;100081.13;;;19.04;54.73
62617;BME280;62539;51.190;6.808;2023-03-25T01:34:14;100091.63;;;19.04;54.65
62617;BME280;62539;51.190;6.808;2023-03-25T01:36:40;100091.63;;;19.04;54.57
62617;BME280;62539;51.190;6.808;2023-03-25T01:39:11;100079.41;;;19.03;54.58
62617;BME280;62539;51.190;6.808;2023-03-25T01:41:41;100088.22;;;19.02;54.73
62617;BME280;62539;51.190;6.808;2023-03-25T01:46:53;100090.06;;;19.00;54.59
62617;BME280;62539;51.190;6.808;2023-03-25T01:49:52;100084.97;;;18.97;54.60
62617;BME280;62539;51.190;6.808;2023-03-25T01:52:23;100079.69;;;18.97;54.78
62617;BME280;62539;51.190;6.808;2023-03-25T01:54:53;100075.34;;;18.96;54.92
62617;BME280;62539;51.190;6.808;2023-03-25T01:57:22;100079.69;;;18.97;54.70
62617;BME280;62539;51.190;6.808;2023-03-25T01:59:50;100071.88;;;18.95;54.74
62617;BME280;62539;51.190;6.808;2023-03-25T02:02:19;100073.63;;;18.95;54.89
62617;BME280;62539;51.190;6.808;2023-03-25T02:04:51;100076.25;;;18.95;54.66
62617;BME280;62539;51.190;6.808;2023-03-25T02:07:26;100060.50;;;18.95;54.69
62617;BME280;62539;51.190;6.808;2023-03-25T02:09:56;100070.16;;;18.94;54.86
62617;BME280;62539;51.190;6.808;2023-03-25T02:12:26;100070.22;;;18.93;54.53
62617;BME280;62539;51.190;6.808;2023-03-25T02:14:53;100065.91;;;18.92;54.69
62617;BME280;62539;51.190;6.808;2023-03-25T02:20:43;100066.91;;;18.89;54.85
62617;BME280;62539;51.190;6.808;2023-03-25T02:32:55;100084.72;;;18.83;54.67
62617;BME280;62539;51.190;6.808;2023-03-25T02:35:52;100084.72;;;18.83;54.77
62617;BME280;62539;51.190;6.808;2023-03-25T02:41:40;100088.38;;;18.80;54.80
62617;BME280;62539;51.190;6.808;2023-03-25T02:44:24;100079.59;;;18.79;54.90
62617;BME280;62539;51.190;6.808;2023-03-25T02:46:59;100079.59;;;18.79;54.90
62617;BME280;62539;51.190;6.808;2023-03-25T02:49:56;100084.94;;;18.78;54.86
62617;BME280;62539;51.190;6.808;2023-03-25T02:52:31;100085.78;;;18.78;54.83
62617;BME280;62539;51.190;6.808;2023-03-25T02:55:05;100085.78;;;18.78;54.81
62617;BME280;62539;51.190;6.808;2023-03-25T02:57:37;100084.94;;;18.78;54.85
62617;BME280;62539;51.190;6.808;2023-03-25T03:00:07;100084.09;;;18.77;54.92
62617;BME280;62539;51.190;6.808;2023-03-25T03:02:42;100075.38;;;18.77;54.90
62617;BME280;62539;51.190;6.808;2023-03-25T03:05:25;100076.19;;;18.77;54.91
62617;BME280;62539;51.190;6.808;2023-03-25T03:14:06;100068.47;;;18.74;54.95
62617;BME280;62539;51.190;6.808;2023-03-25T03:17:26;100059.81;;;18.72;54.86
62617;BME280;62539;51.190;6.808;2023-03-25T03:20:16;100066.84;;;18.72;54.82
62617;BME280;62539;51.190;6.808;2023-03-25T03:26:04;100060.81;;;18.70;55.08
62617;BME280;62539;51.190;6.808;2023-03-25T03:28:45;100069.63;;;18.69;54.94
62617;BME280;62539;51.190;6.808;2023-03-25T03:31:21;100063.44;;;18.70;55.01
62617;BME280;62539;51.190;6.808;2023-03-25T03:33:56;100070.44;;;18.69;55.11
62617;BME280;62539;51.190;6.808;2023-03-25T03:36:31;100069.63;;;18.69;54.91
62617;BME280;62539;51.190;6.808;2023-03-25T03:39:16;100074.00;;;18.68;55.02
62617;BME280;62539;51.190;6.808;2023-03-25T03:41:50;100067.91;;;18.68;54.75
62617;BME280;62539;51.190;6.808;2023-03-25T03:44:23;100061.78;;;18.67;55.04
62617;BME280;62539;51.190;6.808;2023-03-25T03:47:15;100072.28;;;18.67;54.98
62617;BME280;62539;51.190;6.808;2023-03-25T03:49:51;100066.22;;;18.66;54.92
62617;BME280;62539;51.190;6.808;2023-03-25T03:52:23;100072.28;;;18.67;55.05
62617;BME280;62539;51.190;6.808;2023-03-25T03:55:09;100075.00;;;18.65;55.04
62617;BME280;62539;51.190;6.808;2023-03-25T03:57:50;100073.31;;;18.64;54.80
62617;BME280;62539;51.190;6.808;2023-03-25T04:00:25;100073.31;;;18.64;54.84
62617;BME280;62539;51.190;6.808;2023-03-25T04:03:05;100075.94;;;18.64;54.93
62617;BME280;62539;51.190;6.808;2023-03-25T04:05:39;100077.69;;;18.64;55.01
62617;BME280;62539;51.190;6.808;2023-03-25T04:08:18;100079.47;;;18.63;54.88
62617;BME280;62539;51.190;6.808;2023-03-25T04:11:19;100067.31;;;18.61;55.02
62617;BME280;62539;51.190;6.808;2023-03-25T04:13:51;100070.81;;;18.61;54.92
62617;BME280;62539;51.190;6.808;2023-03-25T04:16:22;100059.44;;;18.61;54.91
62617;BME280;62539;51.190;6.808;2023-03-25T04:18:48;100064.78;;;18.59;54.80
62617;BME280;62539;51.190;6.808;2023-03-25T04:21:18;100058.66;;;18.59;55.01
62617;BME280;62539;51.190;6.808;2023-03-25T04:23:44;100066.53;;;18.59;54.99
62617;BME280;62539;51.190;6.808;2023-03-25T04:26:11;100063.91;;;18.59;54.93
62617;BME280;62539;51.190;6.808;2023-03-25T04:28:38;100069.16;;;18.59;54.96
62617;BME280;62539;51.190;6.808;2023-03-25T04:31:11;100070.09;;;18.58;54.94
62617;BME280;62539;51.190;6.808;2023-03-25T04:33:40;100070.19;;;18.56;54.74
62617;BME280;62539;51.190;6.808;2023-03-25T04:36:13;100063.13;;;18.57;55.11
62617;BME280;62539;51.190;6.808;2023-03-25T04:38:40;100072.81;;;18.56;55.07
62617;BME280;62539;51.190;6.808;2023-03-25T04:41:07;100066.69;;;18.56;54.95
62617;BME280;62539;51.190;6.808;2023-03-25T04:43:34;100067.63;;;18.55;55.01
62617;BME280;62539;51.190;6.808;2023-03-25T04:46:00;100066.78;;;18.54;55.00
62617;BME280;62539;51.190;6.808;2023-03-25T04:48:28;100066.78;;;18.54;54.89
62617;BME280;62539;51.190;6.808;2023-03-25T04:50:59;100068.56;;;18.54;54.84
62617;BME280;62539;51.190;6.808;2023-03-25T04:53:27;100069.47;;;18.53;54.87
62617;BME280;62539;51.190;6.808;2023-03-25T04:55:54;100072.09;;;18.53;55.01
62617;BME280;62539;51.190;6.808;2023-03-25T04:58:20;100062.53;;;18.51;54.78
62617;BME280;62539;51.190;6.808;2023-03-25T05:00:48;100065.16;;;18.51;54.77
62617;BME280;62539;51.190;6.808;2023-03-25T05:03:16;100066.91;;;18.51;54.89
62617;BME280;62539;51.190;6.808;2023-03-25T05:05:48;100061.75;;;18.49;54.85
62617;BME280;62539;51.190;6.808;2023-03-25T05:08:17;100068.69;;;18.50;54.91
62617;BME280;62539;51.190;6.808;2023-03-25T05:10:45;100065.94;;;18.54;55.07
62617;BME280;62539;51.190;6.808;2023-03-25T05:13:11;100073.44;;;18.61;54.88
62617;BME280;62539;51.190;6.808;2023-03-25T05:15:37;100067.91;;;18.68;54.77
62617;BME280;62539;51.190;6.808;2023-03-25T05:18:11;100071.88;;;18.76;54.54
62617;BME280;62539;51.190;6.808;2023-03-25T05:20:43;100074.16;;;18.84;54.48
62617;BME280;62539;51.190;6.808;2023-03-25T05:23:12;100078.97;;;18.93;54.44
62617;BME280;62539;51.190;6.808;2023-03-25T05:25:45;100084.66;;;19.03;54.06
62617;BME280;62539;51.190;6.808;2023-03-25T05:28:12;100085.09;;;19.13;53.81
62617;BME280;62539;51.190;6.808;2023-03-25T05:30:39;100077.59;;;19.23;53.60
62617;BME280;62539;51.190;6.808;2023-03-25T05:33:08;100085.06;;;19.32;53.29
62617;BME280;62539;51.190;6.808;2023-03-25T05:35:36;100085.69;;;19.37;53.21
62617;BME280;62539;51.190;6.808;2023-03-25T05:38:03;100081.03;;;19.43;53.08
62617;BME280;62539;51.190;6.808;2023-03-25T05:40:30;100080.06;;;19.45;52.84
62617;BME280;62539;51.190;6.808;2023-03-25T05:42:57;100077.34;;;19.47;52.90
62617;BME280;62539;51.190;6.808;2023-03-25T05:45:22;100074.69;;;19.47;52.79
62617;BME280;62539;51.190;6.808;2023-03-25T05:47:48;100078.19;;;19.47;52.75
62617;BME280;62539;51.190;6.808;2023-03-25T05:50:13;100075.56;;;19.47;52.90
62617;BME280;62539;51.190;6.808;2023-03-25T05:52:40;100083.47;;;19.47;52.61
62617;BME280;62539;51.190;6.808;2023-03-25T05:55:18;100074.78;;;19.45;52.75
62617;BME280;62539;51.190;6.808;2023-03-25T05:57:45;100075.63;;;19.46;52.91
62617;BME280;62539;51.190;6.808;2023-03-25T06:00:12;100079.13;;;19.46;52.97
62617;BME280;62539;51.190;6.808;2023-03-25T06:02:40;100078.97;;;19.49;52.74
62617;BME280;62539;51.190;6.808;2023-03-25T06:05:08;100091.88;;;19.54;52.80
62617;BME280;62539;51.190;6.808;2023-03-25T06:07:38;100090.81;;;19.58;52.76
62617;BME280;62539;51.190;6.808;2023-03-25T06:10:12;100091.59;;;19.60;52.53
62617;BME280;62539;51.190;6.808;2023-03-25T06:12:41;100085.25;;;19.64;52.48
62617;BME280;62539;51.190;6.808;2023-03-25T06:15:09;100092.19;;;19.65;52.33
62617;BME280;62539;51.190;6.808;2023-03-25T06:17:36;100097.47;;;19.65;52.22
62617;BME280;62539;51.190;6.808;2023-03-25T06:20:09;100076.41;;;19.65;52.21
62617;BME280;62539;51.190;6.808;2023-03-25T06:22:40;100083.38;;;19.66;52.33
62617;BME280;62539;51.190;6.808;2023-03-25T06:25:08;100086.78;;;19.68;52.23
62617;BME280;62539;51.190;6.808;2023-03-25T06:27:41;100085.03;;;19.69;52.30
62617;BME280;62539;51.190;6.808;2023-03-25T06:30:12;100084.94;;;19.71;52.25
62617;BME280;62539;51.190;6.808;2023-03-25T06:32:39;100091.13;;;19.69;52.18
62617;BME280;62539;51.190;6.808;2023-03-25T06:35:06;100091.13;;;19.69;52.16
62617;BME280;62539;51.190;6.808;2023-03-25T06:37:34;100097.25;;;19.70;52.35
62617;BME280;62539;51.190;6.808;2023-03-25T06:40:00;100093.75;;;19.69;52.34
62617;BME280;62539;51.190;6.808;2023-03-25T06:42:27;100098.88;;;19.73;52.36
62617;BME280;62539;51.190;6.808;2023-03-25T06:44:53;100099.63;;;19.75;52.32
62617;BME280;62539;51.190;6.808;2023-03-25T06:47:20;100102.88;;;19.80;52.20
62617;BME280;62539;51.190;6.808;2023-03-25T06:49:46;100108.72;;;19.87;52.17
62617;BME280;62539;51.190;6.808;2023-03-25T06:52:11;100113.59;;;19.94;51.87
62617;BME280;62539;51.190;6.808;2023-03-25T06:54:37;100116.69;;;20.03;51.68
62617;BME280;62539;51.190;6.808;2023-03-25T06:57:03;100116.38;;;20.09;51.44
62617;BME280;62539;51.190;6.808;2023-03-25T06:59:29;100111.72;;;20.14;51.36
62617;BME280;62539;51.190;6.808;2023-03-25T07:01:55;100119.47;;;20.17;51.15
62617;BME280;62539;51.190;6.808;2023-03-25T07:04:21;100115.84;;;20.20;51.07
62617;BME280;62539;51.190;6.808;2023-03-25T07:06:46;100111.41;;;20.20;50.83
62617;BME280;62539;51.190;6.808;2023-03-25T07:09:11;100110.47;;;20.21;50.81
62617;BME280;62539;51.190;6.808;2023-03-25T07:11:37;100119.25;;;20.22;50.70
62617;BME280;62539;51.190;6.808;2023-03-25T07:14:02;100113.13;;;20.21;50.34
62617;BME280;62539;51.190;6.808;2023-03-25T07:16:28;100102.56;;;20.21;50.32
62617;BME280;62539;51.190;6.808;2023-03-25T07:18:54;100111.34;;;20.22;50.46
62617;BME280;62539;51.190;6.808;2023-03-25T07:21:21;100112.03;;;20.25;50.44
62617;BME280;62539;51.190;6.808;2023-03-25T07:23:47;100116.28;;;20.28;50.62
62617;BME280;62539;51.190;6.808;2023-03-25T07:26:13;100110.00;;;20.31;50.49
62617;BME280;62539;51.190;6.808;2023-03-25T07:28:38;100112.41;;;20.35;50.37
62617;BME280;62539;51.190;6.808;2023-03-25T07:31:14;100121.75;;;20.41;50.38
62617;BME280;62539;51.190;6.808;2023-03-25T07:33:41;100105.63;;;20.47;50.28
62617;BME280;62539;51.190;6.808;2023-03-25T07:36:07;100114.13;;;20.52;49.79
62617;BME280;62539;51.190;6.808;2023-03-25T07:38:35;100122.47;;;20.61;49.95
62617;BME280;62539;51.190;6.808;2023-03-25T07:41:09;100123.84;;;20.68;49.77
62617;BME280;62539;51.190;6.808;2023-03-25T07:43:37;100121.81;;;20.73;49.70
62617;BME280;62539;51.190;6.808;2023-03-25T07:46:04;100126.00;;;20.77;49.68
62617;BME280;62539;51.190;6.808;2023-03-25T07:48:30;100134.69;;;20.79;49.64
62617;BME280;62539;51.190;6.808;2023-03-25T07:50:56;100129.34;;;20.81;49.42
62617;BME280;62539;51.190;6.808;2023-03-25T07:53:22;100131.06;;;20.82;49.73
62617;BME280;62539;51.190;6.808;2023-03-25T07:55:47;100135.47;;;20.81;49.82
62617;BME280;62539;51.190;6.808;2023-03-25T07:58:17;100133.75;;;20.80;49.77
62617;BME280;62539;51.190;6.808;2023-03-25T08:00:43;100139.03;;;20.80;49.95
62617;BME280;62539;51.190;6.808;2023-03-25T08:03:10;100133.06;;;20.77;49.82
62617;BME280;62539;51.190;6.808;2023-03-25T08:05:36;100136.63;;;20.76;50.07
62617;BME280;62539;51.190;6.808;2023-03-25T08:08:04;100140.38;;;20.71;50.01
62617;BME280;62539;51.190;6.808;2023-03-25T08:10:30;100143.06;;;20.70;50.17
62617;BME280;62539;51.190;6.808;2023-03-25T08:12:55;100142.13;;;20.71;50.23
62617;BME280;62539;51.190;6.808;2023-03-25T08:15:21;100149.81;;;20.76;50.64
62617;BME280;62539;51.190;6.808;2023-03-25T08:17:50;100150.19;;;20.85;50.31
62617;BME280;62539;51.190;6.808;2023-03-25T08:20:16;100151.56;;;20.93;50.07
62617;BME280;62539;51.190;6.808;2023-03-25T08:22:45;100157.25;;;21.01;49.96
62617;BME280;62539;51.190;6.808;2023-03-25T08:25:11;100148.06;;;21.08;49.67
62617;BME280;62539;51.190;6.808;2023-03-25T08:27:36;100153.00;;;21.14;49.58
62617;BME280;62539;51.190;6.808;2023-03-25T08:30:03;100149.28;;;21.19;49.63
62617;BME280;62539;51.190;6.808;2023-03-25T08:32:29;100158.78;;;21.21;49.23
62617;BME280;62539;51.190;6.808;2023-03-25T08:34:55;100154.38;;;21.22;49.34
62617;BME280;62539;51.190;6.808;2023-03-25T08:37:21;100156.06;;;21.23;49.32
62617;BME280;62539;51.190;6.808;2023-03-25T08:39:48;100164.94;;;21.22;49.33
62617;BME280;62539;51.190;6.808;2023-03-25T08:42:15;100156.25;;;21.20;49.72
62617;BME280;62539;51.190;6.808;2023-03-25T08:44:41;100169.53;;;21.18;49.58
62617;BME280;62539;51.190;6.808;2023-03-25T08:47:07;100160.00;;;21.15;49.27
62617;BME280;62539;51.190;6.808;2023-03-25T08:49:33;100154.13;;;21.10;49.31
62617;BME280;62539;51.190;6.808;2023-03-25T08:51:58;100171.03;;;21.06;49.17
62617;BME280;62539;51.190;6.808;2023-03-25T08:54:26;100159.66;;;21.06;49.33
62617;BME280;62539;51.190;6.808;2023-03-25T08:56:53;100150.88;;;21.05;49.28
62617;BME280;62539;51.190;6.808;2023-03-25T08:59:18;100158.63;;;21.08;49.31
62617;BME280;62539;51.190;6.808;2023-03-25T09:01:44;100160.16;;;21.12;47.05
62617;BME280;62539;51.190;6.808;2023-03-25T09:04:10;100165.59;;;21.09;45.31
62617;BME280;62539;51.190;6.808;2023-03-25T09:06:36;100161.38;;;21.07;43.17
62617;BME280;62539;51.190;6.808;2023-03-25T09:09:03;100159.91;;;21.01;42.63
62617;BME280;62539;51.190;6.808;2023-03-25T09:11:33;100157.75;;;20.92;42.13
62617;BME280;62539;51.190;6.808;2023-03-25T09:13:59;100166.16;;;20.82;41.58
62617;BME280;62539;51.190;6.808;2023-03-25T09:16:29;100155.16;;;20.74;41.79
62617;BME280;62539;51.190;6.808;2023-03-25T09:18:56;100166.03;;;20.68;42.19
62617;BME280;62539;51.190;6.808;2023-03-25T09:21:21;100164.41;;;20.65;42.54
62617;BME280;62539;51.190;6.808;2023-03-25T09:23:46;100164.41;;;20.65;42.84
62617;BME280;62539;51.190;6.808;2023-03-25T09:26:12;100162.63;;;20.66;43.07
62617;BME280;62539;51.190;6.808;2023-03-25T09:28:37;100147.66;;;20.66;43.43
62617;BME280;62539;51.190;6.808;2023-03-25T09:31:03;100159.03;;;20.67;43.67
62617;BME280;62539;51.190;6.808;2023-03-25T09:33:28;100149.97;;;20.73;43.65
62617;BME280;62539;51.190;6.808;2023-03-25T09:35:54;100153.16;;;20.79;43.89
62617;BME280;62539;51.190;6.808;2023-03-25T09:38:20;100159.13;;;20.83;43.84
62617;BME280;62539;51.190;6.808;2023-03-25T09:40:46;100161.50;;;20.88;44.12
62617;BME280;62539;51.190;6.808;2023-03-25T09:45:50;100161.88;;;20.97;44.02
62617;BME280;62539;51.190;6.808;2023-03-25T09:50:52;100164.25;;;21.02;44.34
62617;BME280;62539;51.190;6.808;2023-03-25T09:53:38;100154.63;;;21.01;44.53
62617;BME280;62539;51.190;6.808;2023-03-25T09:56:17;100175.56;;;21.04;44.69
62617;BME280;62539;51.190;6.808;2023-03-25T09:58:52;100167.63;;;21.04;44.27
62617;BME280;62539;51.190;6.808;2023-03-25T10:07:10;100172.09;;;21.04;44.42
62617;BME280;62539;51.190;6.808;2023-03-25T10:19:11;100185.25;;;21.04;44.88
62617;BME280;62539;51.190;6.808;2023-03-25T10:24:30;100182.78;;;21.17;44.93
62617;BME280;62539;51.190;6.808;2023-03-25T10:32:42;100184.91;;;21.42;45.89
62617;BME280;62539;51.190;6.808;2023-03-25T10:35:17;100183.78;;;21.46;46.07
62617;BME280;62539;51.190;6.808;2023-03-25T10:37:49;100194.28;;;21.48;46.21
62617;BME280;62539;51.190;6.808;2023-03-25T10:43:15;100183.97;;;21.43;46.13
62617;BME280;62539;51.190;6.808;2023-03-25T10:45:44;100187.53;;;21.42;46.12
62617;BME280;62539;51.190;6.808;2023-03-25T10:48:15;100188.59;;;21.39;46.14
62617;BME280;62539;51.190;6.808;2023-03-25T10:50:46;100183.38;;;21.38;46.30
62617;BME280;62539;51.190;6.808;2023-03-25T10:53:23;100187.72;;;21.39;46.19
62617;BME280;62539;51.190;6.808;2023-03-25T10:55:55;100187.91;;;21.52;46.08
62617;BME280;62539;51.190;6.808;2023-03-25T10:58:26;100180.28;;;21.62;45.85
62617;BME280;62539;51.190;6.808;2023-03-25T11:00:53;100177.25;;;21.69;46.11
62617;BME280;62539;51.190;6.808;2023-03-25T11:03:25;100173.31;;;21.77;45.84
62617;BME280;62539;51.190;6.808;2023-03-25T11:05:56;100167.59;;;21.84;45.46
62617;BME280;62539;51.190;6.808;2023-03-25T11:08:21;100177.72;;;21.92;45.58
62617;BME280;62539;51.190;6.808;2023-03-25T11:10:48;100174.72;;;21.98;45.19
62617;BME280;62539;51.190;6.808;2023-03-25T11:13:23;100170.72;;;22.22;44.87
62617;BME280;62539;51.190;6.808;2023-03-25T11:15:52;100191.59;;;22.41;44.62
62617;BME280;62539;51.190;6.808;2023-03-25T11:18:25;100172.22;;;22.56;44.50
62617;BME280;62539;51.190;6.808;2023-03-25T11:21:00;100173.16;;;22.55;44.16
62617;BME280;62539;51.190;6.808;2023-03-25T11:26:11;100180.41;;;22.52;44.12
62617;BME280;62539;51.190;6.808;2023-03-25T11:28:54;100183.72;;;22.70;43.95
62617;BME280;62539;51.190;6.808;2023-03-25T11:31:27;100177.13;;;22.77;44.10
62617;BME280;62539;51.190;6.808;2023-03-25T11:41:48;100181.56;;;23.47;42.50
62617;BME280;62539;51.190;6.808;2023-03-25T11:44:28;100202.34;;;23.54;42.34
62617;BME280;62539;51.190;6.808;2023-03-25T11:47:02;100206.38;;;23.59;41.98
62617;BME280;62539;51.190;6.808;2023-03-25T11:49:33;100206.09;;;23.64;41.88
62617;BME280;62539;51.190;6.808;2023-03-25T11:52:06;100206.38;;;23.59;41.64
62617;BME280;62539;51.190;6.808;2023-03-25T11:54:35;100199.16;;;23.48;41.87
62617;BME280;62539;51.190;6.808;2023-03-25T11:57:02;100199.94;;;23.36;41.99
62617;BME280;62539;51.190;6.808;2023-03-25T11:59:42;100212.31;;;23.21;42.40
62617;BME280;62539;51.190;6.808;2023-03-25T12:02:29;100231.69;;;23.07;42.73
62617;BME280;62539;51.190;6.808;2023-03-25T12:05:08;100239.47;;;22.96;43.15
62617;BME280;62539;51.190;6.808;2023-03-25T12:08:00;100230.75;;;22.79;43.61
62617;BME280;62539;51.190;6.808;2023-03-25T12:16:39;100235.84;;;22.53;44.48
62617;BME280;62539;51.190;6.808;2023-03-25T12:20:31;100226.28;;;22.51;44.58
62617;BME280;62539;51.190;6.808;2023-03-25T12:22:59;100213.63;;;22.56;44.76
62617;BME280;62539;51.190;6.808;2023-03-25T12:25:45;100212.69;;;22.57;44.44
62617;BME280;62539;51.190;6.808;2023-03-25T12:31:25;100192.97;;;23.06;44.16
62617;BME280;62539;51.190;6.808;2023-03-25T12:37:52;100180.19;;;23.27;43.54
62617;BME280;62539;51.190;6.808;2023-03-25T12:43:04;100179.63;;;24.04;42.22
62617;BME280;62539;51.190;6.808;2023-03-25T12:45:53;100178.47;;;24.34;41.77
62617;BME280;62539;51.190;6.808;2023-03-25T12:54:27;100178.16;;;24.52;40.94
62617;BME280;62539;51.190;6.808;2023-03-25T13:03:06;100178.84;;;23.89;42.52
62617;BME280;62539;51.190;6.808;2023-03-25T13:05:49;100190.56;;;23.72;42.79
62617;BME280;62539;51.190;6.808;2023-03-25T13:08:28;100206.50;;;23.58;42.71
62617;BME280;62539;51.190;6.808;2023-03-25T13:11:21;100195.94;;;23.43;43.16
62617;BME280;62539;51.190;6.808;2023-03-25T13:13:54;100192.19;;;23.33;43.32
62617;BME280;62539;51.190;6.808;2023-03-25T13:16:27;100210.34;;;23.25;43.43
62617;BME280;62539;51.190;6.808;2023-03-25T13:19:05;100206.38;;;23.17;43.35
62617;BME280;62539;51.190;6.808;2023-03-25T13:21:42;100200.59;;;23.11;43.89
62617;BME280;62539;51.190;6.808;2023-03-25T13:24:26;100233.78;;;23.02;43.81
62617;BME280;62539;51.190;6.808;2023-03-25T13:27:00;100249.34;;;22.92;43.68
62617;BME280;62539;51.190;6.808;2023-03-25T13:29:45;100276.56;;;22.80;43.84
62617;BME280;62539;51.190;6.808;2023-03-25T13:32:39;100272.88;;;22.68;44.45
62617;BME280;62539;51.190;6.808;2023-03-25T13:35:38;100280.59;;;22.56;44.62
62617;BME280;62539;51.190;6.808;2023-03-25T13:38:33;100262.44;;;22.50;44.88
62617;BME280;62539;51.190;6.808;2023-03-25T13:41:27;100248.19;;;22.53;44.97
62617;BME280;62539;51.190;6.808;2023-03-25T13:46:56;100234.31;;;22.49;44.95
62617;BME280;62539;51.190;6.808;2023-03-25T13:49:50;100230.72;;;22.50;44.66
62617;BME280;62539;51.190;6.808;2023-03-25T13:52:20;100237.72;;;22.51;45.04
62617;BME280;62539;51.190;6.808;2023-03-25T13:55:00;100224.34;;;22.69;44.71
62617;BME280;62539;51.190;6.808;2023-03-25T14:00:40;100224.91;;;23.32;43.63
62617;BME280;62539;51.190;6.808;2023-03-25T14:07:13;100217.28;;;23.82;42.84
62617;BME280;62539;51.190;6.808;2023-03-25T14:13:21;100224.81;;;23.88;42.31
62617;BME280;62539;51.190;6.808;2023-03-25T14:15:57;100220.78;;;23.83;42.41
62617;BME280;62539;51.190;6.808;2023-03-25T14:18:28;100217.66;;;23.76;42.46
62617;BME280;62539;51.190;6.808;2023-03-25T14:20:57;100231.22;;;23.71;42.65
62617;BME280;62539;51.190;6.808;2023-03-25T14:23:35;100225.25;;;23.68;42.92
62617;BME280;62539;51.190;6.808;2023-03-25T14:26:03;100227.22;;;23.78;42.57
62617;BME280;62539;51.190;6.808;2023-03-25T14:28:38;100225.00;;;23.85;42.68
62617;BME280;62539;51.190;6.808;2023-03-25T14:31:30;100227.88;;;23.95;42.73
62617;BME280;62539;51.190;6.808;2023-03-25T14:36:30;100219.31;;;23.91;42.72
62617;BME280;62539;51.190;6.808;2023-03-25T14:44:31;100215.06;;;23.61;42.65
62617;BME280;62539;51.190;6.808;2023-03-25T14:47:00;100216.72;;;23.49;43.12
62617;BME280;62539;51.190;6.808;2023-03-25T14:49:50;100213.16;;;23.36;43.54
62617;BME280;62539;51.190;6.808;2023-03-25T14:53:10;100205.16;;;23.23;43.89
62617;BME280;62539;51.190;6.808;2023-03-25T14:55:27;100201.47;;;23.11;43.88
62617;BME280;62539;51.190;6.808;2023-03-25T14:58:13;100208.09;;;23.04;44.04
62617;BME280;62539;51.190;6.808;2023-03-25T15:00:51;100221.88;;;22.95;44.38
62617;BME280;62539;51.190;6.808;2023-03-25T15:03:20;100223.09;;;22.89;44.38
62617;BME280;62539;51.190;6.808;2023-03-25T15:05:55;100214.72;;;22.82;44.68
62617;BME280;62539;51.190;6.808;2023-03-25T15:08:25;100233.59;;;22.76;44.77
62617;BME280;62539;51.190;6.808;2023-03-25T15:11:10;100234.91;;;22.69;44.93
62617;BME280;62539;51.190;6.808;2023-03-25T15:13:43;100233.59;;;22.61;44.88